ePrivacy and GPDR Cookie Consent by Cookie Consent
EmailTwitter


Observations de surface / Royaume-Uni / EGLL (03772)

Régions: Québec | Canada | États-Unis | Europe | France | UK | Ailleurs
Station
Affichage
Infos & localisation pour EGLL (03772) | Aide pour décoder les METARs

Observations prises le 2022-12-07 à 17H20 UTC à LONDON/HEATHROW, UK (EGLL)

Température: 3.0 Celsius

Point de rosée: 0.0 Celsius

Humidité relative: 81%

Facteur vent 0.

Vents: Ouest-nord-ouest à 9 km/h ou 5 noeuds.

Pression au niveau moyen de la mer: 101.90 kilopascals.

Visibilité horizontale: 6.21 milles terrestres ou 9.94 kilomètres.

Observation METAR:

EGLL 071720Z AUTO 29005KT 9999 NCD 03/M00 Q1019 NOSIG=